Time;durP1;ratioP1;P1;durP2;ratioP2;P2;SDS_P1;SDS_P2;PMS_P1;PMS_P2;Temp;Humidity;BMP_temperature;BMP_pressure;BME280_temperature;BME280_humidity;BME280_pressure;Samples;Min_cycle;Max_cycle;Signal;HPM_P1;HPM_P2
2023/08/20 00:02:09;;;;;;;11.88;3.13;;;16.90;99.90;;;;;;5113751;27;20051;-59
2023/08/20 00:04:36;;;;;;;11.15;3.30;;;16.80;99.90;;;;;;5111530;27;20042;-59
2023/08/20 00:07:03;;;;;;;11.80;2.88;;;16.80;99.90;;;;;;5110781;28;20102;-59
2023/08/20 00:09:30;;;;;;;10.80;3.38;;;16.80;99.90;;;;;;5109368;27;20090;-59
2023/08/20 00:11:55;;;;;;;7.55;2.90;;;16.80;99.90;;;;;;5111357;28;20047;-59
2023/08/20 00:15:04;;;;;;;9.60;3.20;;;16.80;99.90;;;;;;5110639;27;20372;-59
2023/08/20 00:17:31;;;;;;;9.52;3.40;;;16.80;99.90;;;;;;5112117;28;20066;-57
2023/08/20 00:19:57;;;;;;;10.75;3.30;;;16.70;99.90;;;;;;5111297;27;20075;-56
2023/08/20 00:22:24;;;;;;;9.07;3.10;;;16.70;99.90;;;;;;5108998;27;20031;-59
2023/08/20 00:24:51;;;;;;;9.15;3.08;;;16.70;99.90;;;;;;5109399;28;20051;-59
2023/08/20 00:27:17;;;;;;;11.02;3.70;;;16.60;99.90;;;;;;5089951;28;20055;-58
2023/08/20 00:29:43;;;;;;;11.15;3.63;;;16.60;99.90;;;;;;5109806;27;20047;-59
2023/08/20 00:32:09;;;;;;;10.50;3.75;;;16.60;99.90;;;;;;5109817;28;20039;-56
2023/08/20 00:34:35;;;;;;;11.50;3.45;;;16.60;99.90;;;;;;5109587;28;20057;-59
2023/08/20 00:37:02;;;;;;;11.23;3.30;;;16.50;99.90;;;;;;5109281;28;20105;-57
2023/08/20 00:39:28;;;;;;;9.77;3.40;;;16.50;99.90;;;;;;5093726;28;20039;-59
2023/08/20 00:41:54;;;;;;;8.15;3.00;;;16.50;99.90;;;;;;5107966;28;20107;-57
2023/08/20 00:44:20;;;;;;;9.88;3.08;;;16.50;99.90;;;;;;5111982;28;20077;-59
2023/08/20 00:46:46;;;;;;;11.30;3.53;;;16.50;99.90;;;;;;5112168;28;20501;-58
2023/08/20 00:49:12;;;;;;;12.18;3.80;;;16.50;99.90;;;;;;5113799;28;20100;-55
2023/08/20 00:51:38;;;;;;;9.15;3.30;;;16.50;99.90;;;;;;5075313;28;20066;-58
2023/08/20 00:54:05;;;;;;;10.38;3.25;;;16.50;99.90;;;;;;5111643;28;20044;-59
2023/08/20 00:56:30;;;;;;;11.27;3.35;;;16.40;99.90;;;;;;5112527;28;20524;-57
2023/08/20 00:58:57;;;;;;;12.07;3.45;;;16.40;99.90;;;;;;5109861;28;20070;-59
2023/08/20 01:01:23;;;;;;;9.70;3.50;;;16.40;99.90;;;;;;5093635;28;20102;-59
2023/08/20 01:03:49;;;;;;;11.38;4.30;;;16.30;99.90;;;;;;5109754;28;20038;-56
2023/08/20 01:06:33;;;;;;;8.23;3.60;;;16.30;99.90;;;;;;5095088;28;20028;-56
2023/08/20 01:09:11;;;;;;;7.28;3.72;;;16.30;99.90;;;;;;5095208;28;20524;-59
2023/08/20 01:11:49;;;;;;;11.18;3.78;;;16.30;99.90;;;;;;5095364;28;20066;-58
2023/08/20 01:14:16;;;;;;;10.25;4.10;;;16.30;99.90;;;;;;5110893;28;20277;-58
2023/08/20 01:16:42;;;;;;;10.30;3.67;;;16.30;99.90;;;;;;5110000;28;20039;-58
2023/08/20 01:19:13;;;;;;;12.45;4.00;;;16.40;99.90;;;;;;5110129;28;20039;-58
2023/08/20 01:21:47;;;;;;;13.00;4.00;;;16.30;99.90;;;;;;5091581;28;20127;-58
2023/08/20 01:24:39;;;;;;;10.07;4.30;;;16.30;99.90;;;;;;5089490;28;20036;-57
2023/08/20 01:27:50;;;;;;;9.10;4.20;;;16.30;99.90;;;;;;5110695;28;20040;-59
2023/08/20 01:30:16;;;;;;;9.30;3.65;;;16.30;99.90;;;;;;5096622;28;20073;-59
2023/08/20 01:32:43;;;;;;;9.77;3.78;;;16.30;99.90;;;;;;5099544;28;20422;-54
2023/08/20 01:35:13;;;;;;;11.48;4.00;;;16.20;99.90;;;;;;5117692;27;20065;-59
2023/08/20 01:37:39;;;;;;;8.30;3.70;;;16.20;99.90;;;;;;5114895;28;20039;-60
2023/08/20 01:40:08;;;;;;;12.75;3.78;;;16.20;99.90;;;;;;5114478;27;20136;-53
2023/08/20 01:42:34;;;;;;;7.70;3.80;;;16.10;99.90;;;;;;5115830;28;20079;-58
2023/08/20 01:44:59;;;;;;;10.48;3.75;;;16.20;99.90;;;;;;5115350;28;20058;-59
2023/08/20 01:47:25;;;;;;;11.15;3.28;;;16.10;99.90;;;;;;5116288;27;20459;-59
2023/08/20 01:49:50;;;;;;;8.18;3.72;;;16.10;99.90;;;;;;5097243;27;20051;-58
2023/08/20 01:52:16;;;;;;;9.75;4.05;;;16.10;99.90;;;;;;5114322;27;20071;-58
2023/08/20 01:54:42;;;;;;;9.45;3.55;;;16.10;99.90;;;;;;5112729;27;20516;-56
2023/08/20 01:57:08;;;;;;;8.50;3.80;;;16.10;99.90;;;;;;5093795;28;20032;-56
2023/08/20 01:59:33;;;;;;;9.68;3.53;;;16.10;99.90;;;;;;5095907;28;20064;-59
2023/08/20 02:01:59;;;;;;;9.23;3.75;;;16.10;99.90;;;;;;5114272;28;20044;-55
2023/08/20 02:04:25;;;;;;;10.32;3.70;;;16.10;99.90;;;;;;5097992;28;20043;-58
2023/08/20 02:06:50;;;;;;;7.25;3.40;;;16.00;99.90;;;;;;5115227;27;20336;-58
2023/08/20 02:09:17;;;;;;;8.25;3.67;;;16.00;99.90;;;;;;5115541;27;20066;-56
2023/08/20 02:11:42;;;;;;;12.65;4.32;;;16.00;99.90;;;;;;5095605;28;20049;-59
2023/08/20 02:14:08;;;;;;;9.73;3.83;;;15.90;99.90;;;;;;5113349;27;21508;-58
2023/08/20 02:16:33;;;;;;;8.63;3.55;;;15.90;99.90;;;;;;5116347;27;20043;-59
2023/08/20 02:19:00;;;;;;;9.20;3.78;;;15.90;99.90;;;;;;5115052;27;20039;-59
2023/08/20 02:21:26;;;;;;;11.23;3.70;;;15.90;99.90;;;;;;5114482;28;20040;-58
2023/08/20 02:23:52;;;;;;;11.70;3.78;;;15.80;99.90;;;;;;5114167;28;20486;-56
2023/08/20 02:26:17;;;;;;;7.65;3.90;;;15.80;99.90;;;;;;5114093;27;20060;-56
2023/08/20 02:28:43;;;;;;;10.23;3.75;;;15.80;99.90;;;;;;5103263;28;20036;-56
2023/08/20 02:31:09;;;;;;;10.27;3.90;;;15.80;99.90;;;;;;5115360;28;20635;-57
2023/08/20 02:33:34;;;;;;;11.05;4.10;;;15.80;99.90;;;;;;5102259;28;20043;-58
2023/08/20 02:36:03;;;;;;;7.28;3.95;;;15.80;99.90;;;;;;5115287;28;20374;-58
2023/08/20 02:38:30;;;;;;;10.52;4.63;;;15.80;99.90;;;;;;5114174;27;20055;-59
2023/08/20 02:40:56;;;;;;;12.85;5.07;;;15.80;99.90;;;;;;5113926;27;20045;-56
2023/08/20 02:43:21;;;;;;;13.68;5.57;;;15.80;99.90;;;;;;5113689;28;20058;-58
2023/08/20 02:45:47;;;;;;;9.13;5.22;;;15.70;99.90;;;;;;5109918;28;20585;-59
2023/08/20 02:48:15;;;;;;;9.90;4.57;;;15.80;99.90;;;;;;5112211;28;20044;-57
2023/08/20 02:50:41;;;;;;;13.43;5.28;;;15.80;99.90;;;;;;5112077;27;20036;-59
2023/08/20 02:53:07;;;;;;;11.48;5.88;;;15.80;99.90;;;;;;5111526;28;20043;-59
2023/08/20 02:55:33;;;;;;;15.10;5.93;;;15.80;99.90;;;;;;5102168;28;20040;-59
2023/08/20 02:57:59;;;;;;;12.27;5.82;;;15.80;99.90;;;;;;5093833;28;20046;-52
2023/08/20 03:00:25;;;;;;;16.73;7.53;;;15.80;99.90;;;;;;5110863;27;20039;-59
2023/08/20 03:02:51;;;;;;;17.20;6.07;;;15.80;99.90;;;;;;5111839;27;20357;-58
2023/08/20 03:05:17;;;;;;;13.05;6.30;;;15.80;99.90;;;;;;5114580;28;20192;-58
2023/08/20 03:07:43;;;;;;;13.75;5.40;;;15.80;99.90;;;;;;5116466;28;20044;-58
2023/08/20 03:10:09;;;;;;;12.40;6.72;;;15.80;99.90;;;;;;5114619;27;20036;-59
2023/08/20 03:12:34;;;;;;;13.18;6.32;;;15.70;99.90;;;;;;5113503;27;20036;-59
2023/08/20 03:15:00;;;;;;;16.10;6.75;;;15.70;99.90;;;;;;5111788;27;20044;-55
2023/08/20 03:17:26;;;;;;;9.68;6.05;;;15.70;99.90;;;;;;5112270;27;20040;-59
2023/08/20 03:19:57;;;;;;;13.18;7.03;;;15.70;99.90;;;;;;5096623;28;20035;-57
2023/08/20 03:22:23;;;;;;;16.40;7.15;;;15.70;99.90;;;;;;5114201;27;20039;-59
2023/08/20 03:24:50;;;;;;;15.50;7.53;;;15.70;99.90;;;;;;5109106;27;20055;-59
2023/08/20 03:27:17;;;;;;;16.95;7.63;;;15.70;99.90;;;;;;5092801;28;20040;-53
2023/08/20 03:29:43;;;;;;;13.48;7.18;;;15.70;99.90;;;;;;5109456;27;20035;-59
2023/08/20 03:32:09;;;;;;;18.83;7.90;;;15.70;99.90;;;;;;5109455;27;20046;-57
2023/08/20 03:34:34;;;;;;;14.55;7.72;;;15.80;99.90;;;;;;5111735;28;20424;-55
2023/08/20 03:37:01;;;;;;;18.08;7.68;;;15.70;99.90;;;;;;5108165;28;20062;-57
2023/08/20 03:39:26;;;;;;;13.68;7.65;;;15.70;99.90;;;;;;5110357;27;20040;-57
2023/08/20 03:41:53;;;;;;;12.95;7.60;;;15.70;99.90;;;;;;5108786;28;20076;-59
2023/08/20 03:44:19;;;;;;;15.25;8.07;;;15.70;99.90;;;;;;5110024;27;20127;-56
2023/08/20 03:46:45;;;;;;;19.05;7.00;;;15.80;99.90;;;;;;5111060;27;20040;-56
2023/08/20 03:49:10;;;;;;;19.73;7.45;;;15.70;99.90;;;;;;5108673;27;20634;-57
2023/08/20 03:51:36;;;;;;;13.13;6.78;;;15.70;99.90;;;;;;5108583;27;20493;-59
2023/08/20 03:54:02;;;;;;;10.88;6.90;;;15.70;99.90;;;;;;5108706;28;20044;-59
2023/08/20 03:56:28;;;;;;;17.63;7.15;;;15.60;99.90;;;;;;5109142;27;20051;-58
2023/08/20 03:58:55;;;;;;;13.40;6.93;;;15.60;99.90;;;;;;5082751;28;20100;-56
2023/08/20 04:01:20;;;;;;;12.70;6.90;;;15.60;99.90;;;;;;5093813;28;20044;-59
2023/08/20 04:03:47;;;;;;;14.10;7.18;;;15.60;99.90;;;;;;5109433;28;20047;-58
2023/08/20 04:06:13;;;;;;;12.48;6.78;;;15.60;99.90;;;;;;5108253;28;20080;-57
2023/08/20 04:08:39;;;;;;;13.65;7.00;;;15.60;99.90;;;;;;5109101;28;20047;-59
2023/08/20 04:11:05;;;;;;;15.60;7.20;;;15.50;99.90;;;;;;5110147;28;20139;-56
2023/08/20 04:13:31;;;;;;;14.43;7.00;;;15.50;99.90;;;;;;5109155;28;20036;-59
2023/08/20 04:15:57;;;;;;;13.82;6.60;;;15.50;99.90;;;;;;5109862;28;20071;-59
2023/08/20 04:18:23;;;;;;;18.83;6.72;;;15.40;99.90;;;;;;5108211;27;20032;-59
2023/08/20 04:20:52;;;;;;;15.88;6.82;;;15.40;99.90;;;;;;5108072;28;20160;-58
2023/08/20 04:23:19;;;;;;;10.25;6.43;;;15.40;99.90;;;;;;5109034;28;20147;-58
2023/08/20 04:25:45;;;;;;;15.50;6.57;;;15.40;99.90;;;;;;5091133;28;20046;-59
2023/08/20 04:28:14;;;;;;;13.68;6.22;;;15.40;99.90;;;;;;5110288;28;20101;-58
2023/08/20 04:30:40;;;;;;;12.73;6.63;;;15.40;99.90;;;;;;5092226;28;20040;-58
2023/08/20 04:33:05;;;;;;;12.20;6.20;;;15.40;99.90;;;;;;5109533;27;20047;-58
2023/08/20 04:35:31;;;;;;;13.55;6.72;;;15.40;99.90;;;;;;5108854;28;20646;-58
2023/08/20 04:37:58;;;;;;;11.05;6.78;;;15.40;99.90;;;;;;5110026;28;20039;-59
2023/08/20 04:40:24;;;;;;;14.27;6.10;;;15.40;99.90;;;;;;5109866;28;20047;-58
2023/08/20 04:42:51;;;;;;;18.30;6.60;;;15.40;99.90;;;;;;5092470;28;20521;-57
2023/08/20 04:45:19;;;;;;;11.23;6.50;;;15.40;99.90;;;;;;5093043;28;20075;-58
2023/08/20 04:47:48;;;;;;;15.50;6.32;;;15.40;99.90;;;;;;5111689;28;20039;-56
2023/08/20 04:50:13;;;;;;;12.93;6.03;;;15.40;99.90;;;;;;5095285;28;20078;-59
2023/08/20 04:52:40;;;;;;;15.07;6.50;;;15.40;99.90;;;;;;5108889;28;20119;-57
2023/08/20 04:55:07;;;;;;;14.82;5.82;;;15.50;99.90;;;;;;5092670;28;20046;-56
2023/08/20 04:57:33;;;;;;;11.50;5.90;;;15.50;99.90;;;;;;5111299;28;20490;-59
2023/08/20 04:59:58;;;;;;;14.70;6.53;;;15.50;99.90;;;;;;5091983;28;20097;-58
2023/08/20 05:02:24;;;;;;;11.70;6.20;;;15.50;99.90;;;;;;5111043;28;20573;-57
2023/08/20 05:04:50;;;;;;;12.25;6.28;;;15.50;99.90;;;;;;5114063;28;20052;-59
2023/08/20 05:07:16;;;;;;;12.68;5.90;;;15.50;99.90;;;;;;5096333;28;20163;-57
2023/08/20 05:09:41;;;;;;;18.67;6.55;;;15.50;99.90;;;;;;5114323;28;20039;-59
2023/08/20 05:12:08;;;;;;;17.35;6.95;;;15.50;99.90;;;;;;5113939;28;20091;-58
2023/08/20 05:14:34;;;;;;;8.48;5.70;;;15.50;99.90;;;;;;5113032;28;20036;-57
2023/08/20 05:17:00;;;;;;;15.80;6.93;;;15.50;99.90;;;;;;5114193;27;20105;-57
2023/08/20 05:19:26;;;;;;;12.07;6.47;;;15.50;99.90;;;;;;5114119;27;20040;-59
2023/08/20 05:21:55;;;;;;;12.65;6.13;;;15.60;99.90;;;;;;5094982;27;20044;-59
2023/08/20 05:24:22;;;;;;;12.68;6.22;;;15.60;99.90;;;;;;5110451;28;20119;-57
2023/08/20 05:27:10;;;;;;;11.55;6.35;;;15.60;99.90;;;;;;5112743;27;20061;-59
2023/08/20 05:29:38;;;;;;;13.95;6.25;;;15.60;99.90;;;;;;5114510;27;20051;-59
2023/08/20 05:32:04;;;;;;;12.32;6.43;;;15.70;99.90;;;;;;5095913;27;20088;-54
2023/08/20 05:34:29;;;;;;;13.50;6.50;;;15.70;99.90;;;;;;5111539;28;20486;-58
2023/08/20 05:36:55;;;;;;;15.73;6.63;;;15.70;99.90;;;;;;5114122;27;20040;-58
2023/08/20 05:39:22;;;;;;;12.52;6.30;;;15.70;99.90;;;;;;5093756;27;20028;-59
2023/08/20 05:41:48;;;;;;;10.65;6.07;;;15.70;99.90;;;;;;5112589;27;20060;-58
2023/08/20 05:44:15;;;;;;;12.75;6.40;;;15.80;99.90;;;;;;5114778;27;20093;-59
2023/08/20 05:46:40;;;;;;;12.15;6.28;;;15.80;99.90;;;;;;5112360;28;20065;-59
2023/08/20 05:49:06;;;;;;;13.07;6.57;;;15.90;99.90;;;;;;5110861;28;20051;-56
2023/08/20 05:51:32;;;;;;;13.82;6.13;;;15.90;99.90;;;;;;5109715;28;20039;-57
2023/08/20 05:53:58;;;;;;;13.23;6.20;;;15.90;99.90;;;;;;5093426;28;20113;-58
2023/08/20 05:56:23;;;;;;;12.75;6.13;;;16.00;99.90;;;;;;5095118;27;20043;-57
2023/08/20 05:58:49;;;;;;;15.32;6.85;;;16.00;99.90;;;;;;5109210;27;20524;-55
2023/08/20 06:01:15;;;;;;;12.23;6.53;;;16.10;99.90;;;;;;5110933;28;20312;-59
2023/08/20 06:03:41;;;;;;;10.90;6.45;;;16.10;99.90;;;;;;5111603;27;20036;-59
2023/08/20 06:06:06;;;;;;;15.98;6.47;;;16.20;99.90;;;;;;5077456;28;20366;-59
2023/08/20 06:08:32;;;;;;;12.80;5.63;;;16.20;99.90;;;;;;5094065;28;20036;-59
2023/08/20 06:10:58;;;;;;;13.95;6.95;;;16.30;99.90;;;;;;5112374;27;20659;-59
2023/08/20 06:13:24;;;;;;;14.65;7.00;;;16.30;99.90;;;;;;5110879;28;20046;-58
2023/08/20 06:15:49;;;;;;;18.73;7.30;;;16.40;99.90;;;;;;5092693;28;20046;-57
2023/08/20 06:18:15;;;;;;;12.43;6.63;;;16.40;99.90;;;;;;5109172;28;20049;-59
2023/08/20 06:20:41;;;;;;;16.67;6.45;;;16.50;99.90;;;;;;5110901;28;20381;-59
2023/08/20 06:23:07;;;;;;;12.70;6.78;;;16.60;99.90;;;;;;5111006;27;20040;-58
2023/08/20 06:25:32;;;;;;;16.23;7.22;;;16.70;99.90;;;;;;5092165;28;20047;-59
2023/08/20 06:27:58;;;;;;;12.95;6.65;;;16.80;99.90;;;;;;5109905;27;20046;-59
2023/08/20 06:30:24;;;;;;;14.85;6.70;;;16.80;99.90;;;;;;5111627;27;20065;-59
2023/08/20 06:32:49;;;;;;;15.55;7.00;;;16.90;99.90;;;;;;5091226;28;20406;-58
2023/08/20 06:35:15;;;;;;;15.38;6.88;;;17.00;99.90;;;;;;5111551;27;20093;-59
2023/08/20 06:37:41;;;;;;;15.27;6.57;;;17.10;99.90;;;;;;5109236;27;20123;-60
2023/08/20 06:40:07;;;;;;;16.50;7.20;;;17.20;99.90;;;;;;5108975;28;20050;-59
2023/08/20 06:42:33;;;;;;;13.60;6.50;;;17.30;99.90;;;;;;5110148;27;20048;-57
2023/08/20 06:44:59;;;;;;;14.75;6.63;;;17.40;99.90;;;;;;5109595;28;20481;-60
2023/08/20 06:47:25;;;;;;;18.10;7.03;;;17.50;99.90;;;;;;5110578;27;20075;-59
2023/08/20 06:49:51;;;;;;;15.15;7.10;;;17.60;99.90;;;;;;5108252;27;20048;-58
2023/08/20 06:52:16;;;;;;;13.70;6.72;;;17.70;99.90;;;;;;5110294;28;20039;-58
2023/08/20 06:54:42;;;;;;;16.33;6.85;;;17.80;99.90;;;;;;5111535;27;20087;-59
2023/08/20 06:57:08;;;;;;;14.13;6.50;;;17.90;99.90;;;;;;5090984;28;20063;-58
2023/08/20 06:59:34;;;;;;;21.73;6.53;;;17.90;99.90;;;;;;5110494;28;20063;-57
2023/08/20 07:02:00;;;;;;;15.52;6.72;;;18.10;99.90;;;;;;5109553;28;20134;-58
2023/08/20 07:04:26;;;;;;;18.90;7.00;;;18.10;99.90;;;;;;5109871;27;20071;-58
2023/08/20 07:06:52;;;;;;;16.73;6.53;;;18.20;99.90;;;;;;5109173;27;20568;-59
2023/08/20 07:09:17;;;;;;;14.85;6.15;;;18.30;99.90;;;;;;5110050;27;20043;-57
2023/08/20 07:11:43;;;;;;;20.15;6.72;;;18.40;99.90;;;;;;5101183;28;20040;-55
2023/08/20 07:14:09;;;;;;;12.07;6.60;;;18.40;99.90;;;;;;5100807;28;20484;-58
2023/08/20 07:16:35;;;;;;;18.58;6.38;;;18.50;99.90;;;;;;5113924;27;20520;-60
2023/08/20 07:19:00;;;;;;;18.75;6.22;;;18.60;99.90;;;;;;5112044;27;20040;-60
2023/08/20 07:21:26;;;;;;;17.73;6.80;;;18.70;99.90;;;;;;5111233;28;20160;-59
2023/08/20 07:23:52;;;;;;;17.92;6.20;;;18.80;99.90;;;;;;5111950;27;20047;-58
2023/08/20 07:26:18;;;;;;;17.00;6.43;;;18.90;99.90;;;;;;5113029;27;20051;-60
2023/08/20 07:29:02;;;;;;;16.83;6.30;;;19.00;99.90;;;;;;5093670;28;20044;-59
2023/08/20 07:31:30;;;;;;;13.68;6.40;;;19.10;99.90;;;;;;5113493;28;20054;-57
2023/08/20 07:33:57;;;;;;;17.27;5.72;;;19.20;99.90;;;;;;5111826;27;20055;-59
2023/08/20 07:36:24;;;;;;;17.20;6.07;;;19.30;99.90;;;;;;5110790;28;20040;-59
2023/08/20 07:38:52;;;;;;;19.75;6.43;;;19.40;99.90;;;;;;5111997;27;20097;-55
2023/08/20 07:41:19;;;;;;;20.20;5.90;;;19.50;99.90;;;;;;5095248;28;20057;-59
2023/08/20 07:43:46;;;;;;;16.55;5.82;;;19.60;99.90;;;;;;5110133;27;20060;-58
2023/08/20 07:46:11;;;;;;;18.17;6.38;;;19.70;99.90;;;;;;5112156;28;20043;-59
2023/08/20 07:48:37;;;;;;;14.00;4.97;;;19.80;99.90;;;;;;5113380;28;20100;-59
2023/08/20 07:51:03;;;;;;;17.40;5.05;;;19.90;99.90;;;;;;5111371;27;20043;-57
2023/08/20 07:53:29;;;;;;;17.63;6.00;;;20.00;99.90;;;;;;5112907;28;20131;-60
2023/08/20 07:55:55;;;;;;;16.17;5.53;;;20.10;99.90;;;;;;5110408;28;20039;-60
2023/08/20 07:58:22;;;;;;;15.15;4.43;;;20.20;99.90;;;;;;5110201;28;20123;-58
2023/08/20 08:00:47;;;;;;;16.85;5.00;;;20.30;99.90;;;;;;5112983;27;20054;-59
2023/08/20 08:03:14;;;;;;;16.25;4.90;;;20.40;99.90;;;;;;5110640;27;20036;-59
2023/08/20 08:05:41;;;;;;;17.35;4.35;;;20.50;99.90;;;;;;5112508;27;20092;-60
2023/08/20 08:08:07;;;;;;;13.38;3.88;;;20.60;99.90;;;;;;5109378;27;20079;-58
2023/08/20 08:10:32;;;;;;;14.55;4.20;;;20.70;99.90;;;;;;5108771;27;20521;-60
2023/08/20 08:12:58;;;;;;;11.65;4.55;;;20.80;99.90;;;;;;5108332;28;20054;-59
2023/08/20 08:15:24;;;;;;;15.68;4.75;;;20.90;99.90;;;;;;5109105;28;20071;-59
2023/08/20 08:17:49;;;;;;;13.10;3.45;;;21.00;99.90;;;;;;5109822;28;20569;-57
2023/08/20 08:20:15;;;;;;;14.20;3.88;;;21.10;99.90;;;;;;5107427;27;20043;-59
2023/08/20 08:22:41;;;;;;;9.77;2.95;;;21.20;99.90;;;;;;5105319;28;20035;-59
2023/08/20 08:25:07;;;;;;;15.05;3.63;;;21.20;99.90;;;;;;5104785;28;20058;-56
2023/08/20 08:27:32;;;;;;;12.05;2.80;;;21.40;99.90;;;;;;5103185;27;20064;-59
2023/08/20 08:29:58;;;;;;;12.02;3.00;;;21.50;99.90;;;;;;5107624;27;20103;-60
2023/08/20 08:32:24;;;;;;;12.23;3.25;;;21.60;99.90;;;;;;5105899;28;20176;-59
2023/08/20 08:34:50;;;;;;;9.75;2.80;;;21.70;99.90;;;;;;5106060;28;20036;-58
2023/08/20 08:37:16;;;;;;;13.38;2.85;;;21.80;99.90;;;;;;5104110;28;20044;-59
2023/08/20 08:39:42;;;;;;;12.35;3.05;;;21.80;99.90;;;;;;5065516;28;20086;-59
2023/08/20 08:42:11;;;;;;;13.68;3.30;;;22.00;99.90;;;;;;5087007;28;20047;-59
2023/08/20 08:44:37;;;;;;;10.65;2.60;;;22.10;99.90;;;;;;5106131;28;20051;-60
2023/08/20 08:47:04;;;;;;;13.23;2.92;;;22.20;99.90;;;;;;5091893;28;20052;-59
2023/08/20 08:49:33;;;;;;;12.25;2.70;;;22.30;99.90;;;;;;5105921;28;20131;-60
2023/08/20 08:51:59;;;;;;;13.80;3.13;;;22.40;99.90;;;;;;5086069;28;20410;-59
2023/08/20 08:54:26;;;;;;;9.38;2.30;;;22.50;99.90;;;;;;5104211;28;20047;-60
2023/08/20 08:56:52;;;;;;;10.32;2.60;;;22.70;99.90;;;;;;5105614;28;20058;-58
2023/08/20 08:59:21;;;;;;;11.38;2.30;;;22.70;99.90;;;;;;5086823;28;20028;-59
2023/08/20 09:01:47;;;;;;;7.53;2.03;;;22.90;99.90;;;;;;5105798;28;20036;-58
2023/08/20 09:04:13;;;;;;;9.13;2.45;;;23.00;99.90;;;;;;5105542;28;20393;-58
2023/08/20 09:06:50;;;;;;;8.52;2.33;;;23.10;99.90;;;;;;5106455;28;20043;-59
2023/08/20 09:09:17;;;;;;;9.32;1.83;;;23.20;99.90;;;;;;5105733;28;20596;-58
2023/08/20 09:11:43;;;;;;;8.43;1.98;;;23.30;99.90;;;;;;5108033;28;20119;-59
2023/08/20 09:14:22;;;;;;;7.45;2.00;;;23.50;99.90;;;;;;5107262;28;20088;-59
2023/08/20 09:17:01;;;;;;;11.40;2.22;;;23.50;99.90;;;;;;5088338;28;20099;-59
2023/08/20 09:19:34;;;;;;;9.30;2.20;;;23.60;99.90;;;;;;5109760;28;20047;-59
2023/08/20 09:22:00;;;;;;;7.68;1.85;;;23.70;99.90;;;;;;5096073;28;20127;-59
2023/08/20 09:24:47;;;;;;;9.30;2.08;;;23.80;99.90;;;;;;5108676;28;20079;-56
2023/08/20 09:27:13;;;;;;;8.82;2.05;;;23.90;99.90;;;;;;5109972;28;20056;-59
2023/08/20 09:29:51;;;;;;;8.00;2.25;;;23.90;99.90;;;;;;5109601;28;20036;-60
2023/08/20 09:32:23;;;;;;;11.18;2.28;;;23.90;99.90;;;;;;5107519;28;20051;-56
2023/08/20 09:34:50;;;;;;;9.65;2.53;;;24.00;99.90;;;;;;5107570;28;20044;-58
2023/08/20 09:37:18;;;;;;;7.82;2.42;;;24.00;99.90;;;;;;5108663;28;20048;-59
2023/08/20 09:39:44;;;;;;;9.45;1.92;;;23.90;99.90;;;;;;5091770;28;20036;-60
2023/08/20 09:42:11;;;;;;;11.80;2.05;;;23.90;99.90;;;;;;5110006;28;20052;-59
2023/08/20 09:44:40;;;;;;;13.23;2.35;;;23.90;99.90;;;;;;5109865;28;20123;-60
2023/08/20 09:47:14;;;;;;;7.90;2.17;;;24.10;99.90;;;;;;5109921;28;20079;-59
2023/08/20 09:49:48;;;;;;;6.63;1.90;;;24.30;99.90;;;;;;5108318;28;20040;-60
2023/08/20 09:52:38;;;;;;;11.23;2.30;;;24.30;99.90;;;;;;5113392;27;20086;-60
2023/08/20 09:55:16;;;;;;;8.80;2.33;;;24.30;99.90;;;;;;5112195;27;20060;-60
2023/08/20 09:57:42;;;;;;;6.00;2.20;;;24.40;99.90;;;;;;5114078;27;20328;-60
2023/08/20 10:00:12;;;;;;;9.25;2.33;;;24.60;99.90;;;;;;5115664;27;20165;-57
2023/08/20 10:02:39;;;;;;;9.15;2.10;;;24.80;99.90;;;;;;5116194;27;20116;-59
2023/08/20 10:05:10;;;;;;;9.20;2.10;;;24.90;99.90;;;;;;5112350;27;20043;-60
2023/08/20 10:07:36;;;;;;;6.15;1.50;;;25.00;99.90;;;;;;5112229;28;20040;-60
2023/08/20 10:10:04;;;;;;;7.50;1.73;;;25.10;99.90;;;;;;5096007;28;20047;-59
2023/08/20 10:12:31;;;;;;;8.55;2.28;;;25.20;99.90;;;;;;5113018;28;20040;-58
2023/08/20 10:14:57;;;;;;;6.75;2.10;;;25.20;99.90;;;;;;5116291;28;21580;-59
2023/08/20 10:17:24;;;;;;;8.40;2.17;;;25.30;99.90;;;;;;5094840;28;20032;-60
2023/08/20 10:19:52;;;;;;;7.88;1.80;;;25.40;99.90;;;;;;5114544;28;20114;-59
2023/08/20 10:22:18;;;;;;;8.27;2.60;;;25.50;99.90;;;;;;5112124;28;20323;-58
2023/08/20 10:24:50;;;;;;;7.57;2.00;;;25.60;99.90;;;;;;5113663;27;20046;-57
2023/08/20 10:27:37;;;;;;;12.90;2.10;;;25.60;99.90;;;;;;5096022;27;20054;-58
2023/08/20 10:30:16;;;;;;;9.43;1.70;;;25.60;99.90;;;;;;5113279;27;20099;-60
2023/08/20 10:32:50;;;;;;;16.08;2.00;;;25.60;99.90;;;;;;5111648;27;20480;-59
2023/08/20 10:35:17;;;;;;;7.47;1.42;;;25.60;99.80;;;;;;5093815;28;20520;-60
2023/08/20 10:38:03;;;;;;;7.85;1.90;;;25.50;99.40;;;;;;5091748;28;20044;-61
2023/08/20 10:40:55;;;;;;;6.72;2.33;;;25.60;99.70;;;;;;5107027;27;20028;-59
2023/08/20 10:43:31;;;;;;;;;;;25.80;99.70;;;;;;5093286;28;20133;-61
2023/08/20 10:46:16;;;;;;;9.00;2.13;;;26.00;99.40;;;;;;5088970;28;19923;-60
2023/08/20 10:48:45;;;;;;;6.13;1.58;;;26.10;99.50;;;;;;5087606;28;20040;-60
2023/08/20 10:51:18;;;;;;;4.10;1.33;;;26.30;98.80;;;;;;5090732;28;20123;-58
2023/08/20 10:54:05;;;;;;;5.00;1.35;;;26.30;98.40;;;;;;5088560;28;20501;-60
2023/08/20 10:56:42;;;;;;;6.85;1.27;;;26.30;97.50;;;;;;5086181;28;20097;-59
2023/08/20 10:59:22;;;;;;;6.47;1.48;;;26.00;97.00;;;;;;5086588;28;20606;-61
2023/08/20 11:01:50;;;;;;;7.07;1.42;;;26.00;97.10;;;;;;5086917;28;20627;-57
2023/08/20 11:04:20;;;;;;;3.70;1.38;;;26.10;97.10;;;;;;5087250;28;20042;-57
2023/08/20 11:06:46;;;;;;;5.30;1.48;;;26.30;96.80;;;;;;5086401;28;20071;-61
2023/08/20 11:09:13;;;;;;;7.03;1.48;;;26.40;96.80;;;;;;5088287;28;20043;-56
2023/08/20 11:11:42;;;;;;;7.85;1.60;;;26.60;96.20;;;;;;5085712;28;20058;-60
2023/08/20 11:14:13;;;;;;;7.25;1.52;;;26.80;96.10;;;;;;5085093;28;20047;-61
2023/08/20 11:16:40;;;;;;;5.95;1.45;;;26.90;95.50;;;;;;5086299;28;20088;-60
2023/08/20 11:19:08;;;;;;;3.58;1.10;;;27.00;94.60;;;;;;5069227;28;20038;-61
2023/08/20 11:21:44;;;;;;;6.78;1.52;;;27.10;93.80;;;;;;5068756;28;20119;-59
2023/08/20 11:24:10;;;;;;;6.45;1.50;;;27.10;93.30;;;;;;5088300;28;20036;-60
2023/08/20 11:26:39;;;;;;;6.55;1.20;;;27.00;92.90;;;;;;5084771;28;20112;-60
2023/08/20 11:29:19;;;;;;;3.40;1.27;;;27.00;92.50;;;;;;5085698;28;20075;-61
2023/08/20 11:31:45;;;;;;;6.15;1.40;;;26.90;91.90;;;;;;5083763;28;20403;-60
2023/08/20 11:34:12;;;;;;;7.45;1.80;;;27.10;93.00;;;;;;5083020;28;20041;-60
2023/08/20 11:36:39;;;;;;;3.03;1.13;;;27.20;92.40;;;;;;5084471;28;20044;-59
2023/08/20 11:39:06;;;;;;;5.00;1.48;;;27.40;91.40;;;;;;5086318;28;20176;-61
2023/08/20 11:41:35;;;;;;;8.48;1.40;;;27.50;91.50;;;;;;5065232;28;20402;-58
2023/08/20 11:44:00;;;;;;;10.50;1.52;;;27.70;91.10;;;;;;5081546;28;20154;-59
2023/08/20 11:46:26;;;;;;;6.60;1.33;;;27.90;91.50;;;;;;5067033;28;20174;-58
2023/08/20 11:49:06;;;;;;;4.40;1.20;;;28.20;91.10;;;;;;5066545;28;20612;-61
2023/08/20 11:51:39;;;;;;;5.95;1.50;;;28.30;89.10;;;;;;5067400;28;20123;-61
2023/08/20 11:54:12;;;;;;;5.70;1.30;;;28.40;90.50;;;;;;5086461;28;20119;-58
2023/08/20 11:56:45;;;;;;;5.70;1.67;;;28.60;89.20;;;;;;5065730;28;20100;-60
2023/08/20 11:59:12;;;;;;;6.28;1.50;;;28.80;89.00;;;;;;5088443;28;20032;-60
2023/08/20 12:01:38;;;;;;;3.80;1.30;;;28.80;87.60;;;;;;5085174;28;20073;-60
2023/08/20 12:04:05;;;;;;;8.40;1.65;;;28.80;86.80;;;;;;5083891;28;20075;-60
2023/08/20 12:06:31;;;;;;;4.18;1.15;;;28.90;85.90;;;;;;5084278;28;20048;-60
2023/08/20 12:08:58;;;;;;;7.20;1.67;;;29.00;85.60;;;;;;5085013;28;20055;-61
2023/08/20 12:11:28;;;;;;;9.30;1.63;;;29.00;84.50;;;;;;5087673;28;20040;-59
2023/08/20 12:13:54;;;;;;;7.53;1.55;;;29.10;83.10;;;;;;5085156;28;20056;-60
2023/08/20 12:16:23;;;;;;;8.75;2.05;;;29.10;82.40;;;;;;5086188;28;20432;-60
2023/08/20 12:18:49;;;;;;;7.70;1.63;;;29.20;83.70;;;;;;5085579;28;20491;-60
2023/08/20 12:21:15;;;;;;;4.75;1.40;;;29.30;82.50;;;;;;5084364;28;20037;-58
2023/08/20 12:23:41;;;;;;;6.40;1.50;;;29.40;82.00;;;;;;5084934;28;20049;-60
2023/08/20 12:26:10;;;;;;;6.07;1.60;;;29.50;81.00;;;;;;5087167;28;20044;-61
2023/08/20 12:28:36;;;;;;;6.75;1.77;;;29.60;80.30;;;;;;5086235;28;20040;-60
2023/08/20 12:31:03;;;;;;;9.27;1.73;;;29.50;80.90;;;;;;5085058;28;20050;-61
2023/08/20 12:33:29;;;;;;;8.07;1.42;;;29.50;80.60;;;;;;5085009;28;20051;-60
2023/08/20 12:35:55;;;;;;;6.93;1.60;;;29.60;82.10;;;;;;5084713;28;20070;-58
2023/08/20 12:38:21;;;;;;;7.78;1.67;;;29.50;80.00;;;;;;5080357;28;20040;-59
2023/08/20 12:40:47;;;;;;;6.35;1.45;;;29.50;79.40;;;;;;5082483;28;20036;-60
2023/08/20 12:43:13;;;;;;;9.45;1.98;;;29.50;79.30;;;;;;5093467;28;20057;-60
2023/08/20 12:45:39;;;;;;;5.05;1.45;;;29.50;79.90;;;;;;5102053;28;20055;-60